Hlavní strana
METAR-TAF:

METAR-TAF

Letiště :

Dušanbe, Tádžikistán

zeměpisná šířka: 38-33N, zeměpisná délka: 068-47E, výška: 803 m

Aktuální stav počasí

Zpráva byla vytvořena před 22 minutami, v 22:00 UTC
Východoseverovýchodní vítr 10 kt
Teplota 5°C
Vlhkost vzduchu 41%
Tlak 1025 hPa
Viditelnost 10 km a více

METAR: UTDD 132200Z 06005MPS 9999 NSC 05/M07 Q1025 R09/D NOSIG RMK QFE700/0933

Čas: 03:22 (22:22 UTC)

Předpověď počasí

Zpráva byla vytvořena před 1 hodinou a 22 minutami, v 21:00 UTC
Předpověď platná od 13 v 22 UTC do 14 v 10 UTC
Východoseverovýchodní vítr 10 kt
Viditelnost: 6000 m
Skoro jasno ve výšce 6600 ft
Polojasno ve výšce 15000 ft
Dočasný
od 13 v 22 UTC do 14 v 07 UTC
vítr z různých směrů 4 kt
Viditelnost: 3100 m
kouřmo, kouř

TAF: UTDD 132100Z 1322/1410 06005MPS 6000 FEW066 SCT150 TEMPO 1322/1407 VRB02MPS 3100 BR FU

Stav a předpovědi počasí z více než 4 000 letišť (zprávy METAR a TAF).

Červené a žluté tečky na mapě představují dostupné meteorologické stanice.

Když kurzor umístíte na tečku, zobrazí se název stanice.

Pak kliknutím zobrazíte stav a předpověď počasí.

Chcete-li změnit mapu, kliknutím na zelené tlačítko se znaménkem +mapu přiblížíte, kliknutím na zelené tlačítko se znaménkem – mapu oddálíte a kliknutím na zelené šipky přejdete na sousední mapy.


METAR-TAF: